KLM84X LFBD-EHAM
Flight info
| Callsign | KLM84X |
|---|---|
| Flight time | N/A |
| Altitude | 36000 |
| Route | CNA DCT ADABI DCT BOKNO UN858 VANAD UN874 BAMES UT191 PODEM UN873 BAZOS DCT LUMIL DCT BELOB UY873 DENUT |
| Aircraft | B737/M-SDE2E3FGHIRWXY/LB1 |
Departure
| Time | N/A |
|---|---|
| Airport | Bordeaux–Mérignac Airport (LFBD) |
Arrival
| Time | 2026-04-28 16:30 |
|---|---|
| Airport | Amsterdam Airport Schiphol (EHAM) |
| Time | Latitude | Longitude | Altitude | Speed | Heading |
|---|---|---|---|---|---|
| 2026-04-28 15:46 | 49.02482 | 1.49978 | 36080 ft | 454 kts | 6° |
| 2026-04-28 15:47 | 49.08741 | 1.51282 | 36080 ft | 453 kts | 7° |
| 2026-04-28 15:47 | 49.14925 | 1.52664 | 36070 ft | 452 kts | 8° |
| 2026-04-28 15:48 | 49.21135 | 1.54128 | 36072 ft | 450 kts | 8° |
| 2026-04-28 15:48 | 49.24182 | 1.55278 | 36065 ft | 450 kts | 21° |
| 2026-04-28 15:48 | 49.27013 | 1.57309 | 36080 ft | 450 kts | 31° |
| 2026-04-28 15:49 | 49.29559 | 1.60073 | 36074 ft | 449 kts | 43° |
| 2026-04-28 15:49 | 49.31838 | 1.63347 | 36086 ft | 448 kts | 45° |
| 2026-04-28 15:49 | 49.36292 | 1.70052 | 36075 ft | 449 kts | 45° |
| 2026-04-28 15:50 | 49.40756 | 1.76695 | 36076 ft | 450 kts | 45° |
| 2026-04-28 15:50 | 49.45291 | 1.83358 | 36076 ft | 450 kts | 44° |
| 2026-04-28 15:51 | 49.49825 | 1.90024 | 36085 ft | 451 kts | 45° |
| 2026-04-28 15:51 | 49.54599 | 1.96295 | 36093 ft | 452 kts | 37° |
| 2026-04-28 15:52 | 49.59672 | 2.01930 | 36077 ft | 451 kts | 36° |
| 2026-04-28 15:52 | 49.64768 | 2.07548 | 36083 ft | 449 kts | 37° |
| 2026-04-28 15:53 | 49.69829 | 2.13235 | 36099 ft | 449 kts | 37° |
| 2026-04-28 15:53 | 49.74863 | 2.18961 | 36105 ft | 447 kts | 38° |
| 2026-04-28 15:54 | 49.79835 | 2.24640 | 36112 ft | 446 kts | 38° |
| 2026-04-28 15:54 | 49.84826 | 2.30357 | 36113 ft | 445 kts | 38° |
| 2026-04-28 15:55 | 49.89815 | 2.36084 | 36116 ft | 446 kts | 38° |
| 2026-04-28 15:55 | 49.94818 | 2.41841 | 36113 ft | 447 kts | 38° |
| 2026-04-28 15:56 | 49.99822 | 2.47618 | 36114 ft | 447 kts | 37° |
| 2026-04-28 15:56 | 50.04816 | 2.53394 | 36103 ft | 445 kts | 37° |
| 2026-04-28 15:57 | 50.09773 | 2.59142 | 36103 ft | 445 kts | 38° |
| 2026-04-28 15:57 | 50.14710 | 2.64880 | 36114 ft | 445 kts | 38° |
| 2026-04-28 15:58 | 50.19657 | 2.70651 | 36107 ft | 442 kts | 39° |
| 2026-04-28 15:58 | 50.24560 | 2.76383 | 36108 ft | 439 kts | 38° |
| 2026-04-28 15:59 | 50.28635 | 2.81161 | 36125 ft | 441 kts | 39° |
| 2026-04-28 15:59 | 50.34368 | 2.87898 | 36130 ft | 445 kts | 38° |
| 2026-04-28 16:00 | 50.39325 | 2.93737 | 36130 ft | 447 kts | 38° |
| 2026-04-28 16:00 | 50.44442 | 2.99142 | 36110 ft | 441 kts | 31° |
| 2026-04-28 16:01 | 50.49872 | 3.03661 | 36123 ft | 442 kts | 30° |
| 2026-04-28 16:01 | 50.55315 | 3.08160 | 36123 ft | 442 kts | 29° |
| 2026-04-28 16:02 | 50.58036 | 3.10448 | 35924 ft | 445 kts | 30° |
| 2026-04-28 16:02 | 50.60771 | 3.12766 | 35354 ft | 446 kts | 31° |
| 2026-04-28 16:02 | 50.63498 | 3.15087 | 34880 ft | 443 kts | 30° |
| 2026-04-28 16:02 | 50.66162 | 3.17356 | 34453 ft | 438 kts | 29° |
| 2026-04-28 16:03 | 50.68835 | 3.19633 | 33986 ft | 435 kts | 30° |
| 2026-04-28 16:03 | 50.71484 | 3.21892 | 33466 ft | 431 kts | 31° |
| 2026-04-28 16:03 | 50.74119 | 3.24104 | 33065 ft | 425 kts | 28° |
| 2026-04-28 16:03 | 50.76727 | 3.26273 | 32623 ft | 420 kts | 32° |
| 2026-04-28 16:04 | 50.79306 | 3.28418 | 32180 ft | 416 kts | 28° |
| 2026-04-28 16:04 | 50.81851 | 3.30538 | 31765 ft | 411 kts | 28° |
| 2026-04-28 16:04 | 50.84376 | 3.32642 | 31355 ft | 406 kts | 32° |
| 2026-04-28 16:04 | 50.86026 | 3.34020 | 31088 ft | 403 kts | 29° |
| 2026-04-28 16:05 | 50.89290 | 3.36751 | 30543 ft | 397 kts | 30° |
| 2026-04-28 16:05 | 50.91715 | 3.38786 | 30124 ft | 392 kts | 30° |
| 2026-04-28 16:05 | 50.94110 | 3.40800 | 29676 ft | 387 kts | 31° |
| 2026-04-28 16:05 | 50.96471 | 3.42791 | 29228 ft | 381 kts | 31° |
| 2026-04-28 16:06 | 50.98797 | 3.44753 | 28817 ft | 375 kts | 31° |
| 2026-04-28 16:06 | 51.01082 | 3.46679 | 28409 ft | 370 kts | 28° |
| 2026-04-28 16:06 | 51.03355 | 3.48592 | 27984 ft | 366 kts | 31° |
| 2026-04-28 16:06 | 51.05588 | 3.50488 | 27587 ft | 363 kts | 31° |
| 2026-04-28 16:07 | 51.07822 | 3.52383 | 27150 ft | 363 kts | 30° |
| 2026-04-28 16:07 | 51.09300 | 3.53635 | 26872 ft | 363 kts | 30° |
| 2026-04-28 16:07 | 51.14477 | 3.58023 | 25899 ft | 360 kts | 33° |
| 2026-04-28 16:08 | 51.15942 | 3.59268 | 25623 ft | 358 kts | 31° |
| 2026-04-28 16:08 | 51.18125 | 3.61128 | 25202 ft | 355 kts | 31° |
| 2026-04-28 16:08 | 51.20287 | 3.62973 | 24659 ft | 351 kts | 31° |
| 2026-04-28 16:09 | 51.24824 | 3.65834 | 23193 ft | 360 kts | 5° |
| 2026-04-28 16:09 | 51.27317 | 3.65892 | 22622 ft | 356 kts | 2° |
| 2026-04-28 16:09 | 51.29781 | 3.65789 | 22116 ft | 349 kts | 0° |
| 2026-04-28 16:10 | 51.34576 | 3.65527 | 20859 ft | 344 kts | 2° |
| 2026-04-28 16:10 | 51.36960 | 3.65423 | 20304 ft | 341 kts | 2° |
| 2026-04-28 16:10 | 51.41656 | 3.65245 | 19427 ft | 338 kts | 2° |
| 2026-04-28 16:11 | 51.46330 | 3.65087 | 18590 ft | 333 kts | 1° |
| 2026-04-28 16:11 | 51.50957 | 3.64942 | 17683 ft | 329 kts | 0° |
| 2026-04-28 16:12 | 51.55472 | 3.64802 | 16844 ft | 323 kts | 3° |
| 2026-04-28 16:12 | 51.57707 | 3.64733 | 16436 ft | 320 kts | 3° |
| 2026-04-28 16:13 | 51.62126 | 3.64590 | 15633 ft | 314 kts | 1° |
| 2026-04-28 16:13 | 51.64309 | 3.64522 | 15233 ft | 312 kts | 3° |
| 2026-04-28 16:13 | 51.68599 | 3.64383 | 14465 ft | 308 kts | 2° |
| 2026-04-28 16:14 | 51.72518 | 3.66177 | 13665 ft | 290 kts | 42° |
| 2026-04-28 16:14 | 51.74928 | 3.71258 | 12872 ft | 286 kts | 60° |
| 2026-04-28 16:15 | 51.77005 | 3.76638 | 12113 ft | 279 kts | 60° |
| 2026-04-28 16:15 | 51.78030 | 3.79295 | 11743 ft | 277 kts | 61° |
| 2026-04-28 16:15 | 51.79052 | 3.81926 | 11365 ft | 275 kts | 59° |
| 2026-04-28 16:16 | 51.81074 | 3.87111 | 10613 ft | 271 kts | 60° |
| 2026-04-28 16:16 | 51.82060 | 3.89634 | 10325 ft | 266 kts | 59° |
| 2026-04-28 16:17 | 51.83979 | 3.94536 | 9856 ft | 256 kts | 60° |
| 2026-04-28 16:17 | 51.84924 | 3.96952 | 9533 ft | 252 kts | 61° |
| 2026-04-28 16:17 | 51.85859 | 3.99348 | 9185 ft | 251 kts | 60° |
| 2026-04-28 16:17 | 51.86789 | 4.01732 | 8855 ft | 250 kts | 61° |
| 2026-04-28 16:18 | 51.87713 | 4.04100 | 8514 ft | 247 kts | 61° |
| 2026-04-28 16:18 | 51.88629 | 4.06449 | 8178 ft | 247 kts | 60° |
| 2026-04-28 16:18 | 51.89550 | 4.08816 | 7835 ft | 248 kts | 61° |
| 2026-04-28 16:18 | 51.90465 | 4.11166 | 7489 ft | 246 kts | 61° |
| 2026-04-28 16:19 | 51.91412 | 4.13471 | 7249 ft | 246 kts | 53° |
| 2026-04-28 16:19 | 51.92596 | 4.15418 | 7029 ft | 245 kts | 46° |
| 2026-04-28 16:19 | 51.93895 | 4.17289 | 6647 ft | 247 kts | 45° |
| 2026-04-28 16:19 | 51.95174 | 4.19097 | 6225 ft | 248 kts | 45° |
| 2026-04-28 16:20 | 51.96476 | 4.20946 | 5877 ft | 247 kts | 45° |
| 2026-04-28 16:20 | 51.97746 | 4.22758 | 5597 ft | 242 kts | 45° |
| 2026-04-28 16:20 | 51.99134 | 4.24323 | 5265 ft | 245 kts | 32° |
| 2026-04-28 16:20 | 52.00612 | 4.25554 | 5210 ft | 231 kts | 33° |
| 2026-04-28 16:21 | 52.01999 | 4.26708 | 5059 ft | 218 kts | 33° |
| 2026-04-28 16:21 | 52.03342 | 4.27794 | 4748 ft | 213 kts | 33° |
| 2026-04-28 16:21 | 52.04660 | 4.28872 | 4411 ft | 210 kts | 32° |
| 2026-04-28 16:21 | 52.05930 | 4.29928 | 4084 ft | 206 kts | 32° |
| 2026-04-28 16:22 | 52.07189 | 4.30981 | 3768 ft | 202 kts | 32° |
| 2026-04-28 16:22 | 52.08428 | 4.32013 | 3430 ft | 198 kts | 32° |
| 2026-04-28 16:22 | 52.09646 | 4.33035 | 3022 ft | 198 kts | 32° |
| 2026-04-28 16:22 | 52.10865 | 4.34080 | 2620 ft | 197 kts | 32° |
| 2026-04-28 16:23 | 52.12078 | 4.35131 | 2239 ft | 196 kts | 32° |
| 2026-04-28 16:23 | 52.13284 | 4.36173 | 2039 ft | 199 kts | 32° |
| 2026-04-28 16:23 | 52.14503 | 4.37273 | 2015 ft | 199 kts | 39° |
| 2026-04-28 16:23 | 52.15403 | 4.38842 | 2004 ft | 185 kts | 52° |
| 2026-04-28 16:24 | 52.16148 | 4.40427 | 2000 ft | 169 kts | 57° |
| 2026-04-28 16:24 | 52.16766 | 4.41982 | 2003 ft | 164 kts | 59° |
| 2026-04-28 16:24 | 52.17378 | 4.43587 | 2007 ft | 167 kts | 59° |
| 2026-04-28 16:24 | 52.17984 | 4.45177 | 1996 ft | 162 kts | 59° |
| 2026-04-28 16:25 | 52.18574 | 4.46726 | 1992 ft | 158 kts | 59° |
| 2026-04-28 16:25 | 52.19149 | 4.48230 | 1994 ft | 155 kts | 59° |
| 2026-04-28 16:25 | 52.19720 | 4.49725 | 1998 ft | 156 kts | 59° |
| 2026-04-28 16:25 | 52.20299 | 4.51242 | 1994 ft | 158 kts | 58° |
| 2026-04-28 16:26 | 52.20878 | 4.52757 | 2002 ft | 155 kts | 58° |
| 2026-04-28 16:26 | 52.21415 | 4.54161 | 2002 ft | 139 kts | 58° |
| 2026-04-28 16:26 | 52.21920 | 4.55483 | 1997 ft | 137 kts | 59° |
| 2026-04-28 16:26 | 52.22430 | 4.56814 | 2004 ft | 139 kts | 59° |
| 2026-04-28 16:27 | 52.22935 | 4.58136 | 1998 ft | 138 kts | 59° |
| 2026-04-28 16:27 | 52.23443 | 4.59465 | 1987 ft | 138 kts | 59° |
| 2026-04-28 16:27 | 52.24482 | 4.62180 | 1667 ft | 139 kts | 59° |
| 2026-04-28 16:28 | 52.24986 | 4.63496 | 1483 ft | 136 kts | 59° |
| 2026-04-28 16:28 | 52.25490 | 4.64812 | 1303 ft | 136 kts | 59° |
| 2026-04-28 16:28 | 52.26004 | 4.66154 | 1122 ft | 143 kts | 58° |
| 2026-04-28 16:28 | 52.26494 | 4.67436 | 1040 ft | 123 kts | 58° |
| 2026-04-28 16:29 | 52.27388 | 4.69751 | 599 ft | 118 kts | 57° |
| 2026-04-28 16:29 | 52.28246 | 4.72008 | 254 ft | 117 kts | 57° |
| 2026-04-28 16:30 | 52.28678 | 4.73119 | 102 ft | 116 kts | 55° |
| 2026-04-28 16:30 | 52.29087 | 4.74175 | -2 ft | 103 kts | 57° |
| 2026-04-28 16:30 | 52.29356 | 4.74884 | -3 ft | 43 kts | 58° |
| 2026-04-28 16:30 | 52.29492 | 4.75233 | -4 ft | 24 kts | 57° |
| 2026-04-28 16:31 | 52.29620 | 4.75347 | -2 ft | 21 kts | 348° |
| 2026-04-28 16:31 | 52.29714 | 4.75291 | -2 ft | 13 kts | 359° |
| 2026-04-28 16:31 | 52.29770 | 4.75388 | -2 ft | 13 kts | 69° |
| 2026-04-28 16:31 | 52.29793 | 4.75467 | -2 ft | 0 kts | 60° |
| 2026-04-28 16:32 | 52.29809 | 4.75512 | -2 ft | 9 kts | 59° |
| 2026-04-28 16:32 | 52.29843 | 4.75602 | -2 ft | 9 kts | 59° |
| 2026-04-28 16:33 | 52.29876 | 4.75692 | -2 ft | 9 kts | 58° |
| 2026-04-28 16:33 | 52.29900 | 4.75753 | -2 ft | 10 kts | 57° |
| 2026-04-28 16:33 | 52.29947 | 4.75875 | -2 ft | 9 kts | 57° |
| 2026-04-28 16:33 | 52.29982 | 4.75966 | -2 ft | 9 kts | 57° |
| 2026-04-28 16:34 | 52.30016 | 4.76052 | -2 ft | 9 kts | 57° |
| 2026-04-28 16:34 | 52.30049 | 4.76138 | -2 ft | 9 kts | 58° |
| 2026-04-28 16:34 | 52.30081 | 4.76222 | -2 ft | 9 kts | 58° |
| 2026-04-28 16:34 | 52.30116 | 4.76313 | -2 ft | 10 kts | 58° |
| 2026-04-28 16:35 | 52.30154 | 4.76414 | -2 ft | 11 kts | 58° |
| 2026-04-28 16:35 | 52.30198 | 4.76526 | -2 ft | 12 kts | 57° |
| 2026-04-28 16:35 | 52.30245 | 4.76645 | -2 ft | 13 kts | 57° |
| 2026-04-28 16:35 | 52.30292 | 4.76772 | -2 ft | 14 kts | 58° |
| 2026-04-28 16:36 | 52.30343 | 4.76905 | -2 ft | 14 kts | 58° |
| 2026-04-28 16:36 | 52.30385 | 4.77012 | -2 ft | 8 kts | 57° |
| 2026-04-28 16:36 | 52.30433 | 4.77042 | -2 ft | 8 kts | 347° |
| 2026-04-28 16:36 | 52.30479 | 4.76997 | -2 ft | 8 kts | 327° |
| 2026-04-28 16:37 | 52.30527 | 4.76949 | -2 ft | 9 kts | 328° |
| 2026-04-28 16:37 | 52.30580 | 4.76894 | -2 ft | 9 kts | 325° |
| 2026-04-28 16:37 | 52.30614 | 4.76808 | -2 ft | 9 kts | 305° |
| 2026-04-28 16:38 | 52.30692 | 4.76693 | -2 ft | 6 kts | 268° |
| 2026-04-28 16:38 | 52.30676 | 4.76633 | -2 ft | 6 kts | 249° |
| 2026-04-28 16:38 | 52.30667 | 4.76592 | -2 ft | 0 kts | 249° |